createdAt,value
2022-10-19T00:00:34.726Z,8.3
2022-10-19T00:15:07.913Z,8.8
2022-10-19T00:29:40.240Z,8.5
2022-10-19T00:44:12.724Z,8.6
2022-10-19T00:58:46.910Z,8.6
2022-10-19T01:13:19.566Z,8.4
2022-10-19T01:27:51.856Z,7.4
2022-10-19T01:42:23.585Z,7.2
2022-10-19T01:56:57.348Z,7
2022-10-19T02:11:30.479Z,7
2022-10-19T02:26:04.113Z,7.7
2022-10-19T02:40:34.521Z,7
2022-10-19T02:55:05.238Z,7.4
2022-10-19T03:09:37.527Z,6.6
2022-10-19T03:24:10.384Z,6.6
2022-10-19T03:38:44.684Z,6.6
2022-10-19T03:53:16.083Z,6.6
2022-10-19T04:07:49.432Z,7.5
2022-10-19T04:22:20.857Z,6.9
2022-10-19T04:36:52.621Z,6.5
2022-10-19T04:51:32.253Z,7
2022-10-19T05:06:08.183Z,7.4
2022-10-19T05:20:37.302Z,7
2022-10-19T05:35:09.787Z,6.7
2022-10-19T05:49:49.498Z,7.3
2022-10-19T06:04:25.428Z,7.5
2022-10-19T06:18:56.602Z,7.7
2022-10-19T06:33:30.586Z,7.8
2022-10-19T06:48:06.597Z,8
2022-10-19T07:02:37.868Z,8
2022-10-19T07:17:10.915Z,7.9
2022-10-19T07:31:44.749Z,8.4
2022-10-19T07:46:18.303Z,8.7
2022-10-19T08:00:52.637Z,8.8
2022-10-19T08:15:29.700Z,9.9
2022-10-19T08:30:04.416Z,10.2
2022-10-19T08:44:37.711Z,11.1
2022-10-19T08:59:14.624Z,11.8
2022-10-19T09:14:04.519Z,14.5
2022-10-19T09:28:39.012Z,14.4
2022-10-19T09:43:09.986Z,14
2022-10-19T09:57:38.576Z,13.5
2022-10-19T10:12:17.066Z,14
2022-10-19T10:26:53.097Z,14.4
2022-10-19T10:41:22.689Z,14.5
2022-10-19T10:55:56.813Z,15.3
2022-10-19T11:10:29.756Z,15.9
2022-10-19T11:25:03.492Z,15.5
2022-10-19T11:39:36.510Z,16
2022-10-19T11:54:17.345Z,16.5
2022-10-19T12:08:53.871Z,16.6
2022-10-19T12:23:25.454Z,16.8
2022-10-19T12:38:03.704Z,16.8
2022-10-19T12:52:34.786Z,17.1
2022-10-19T13:07:08.440Z,17.2
2022-10-19T13:21:42.691Z,17
2022-10-19T13:36:17.022Z,17.1
2022-10-19T13:50:47.134Z,16.9
2022-10-19T14:05:17.803Z,16.8
2022-10-19T14:19:49.394Z,16.4
2022-10-19T14:34:23.695Z,16.1
2022-10-19T14:48:56.144Z,15.9
2022-10-19T15:03:28.751Z,15.7
2022-10-19T15:18:04.603Z,15.6
2022-10-19T15:32:35.052Z,15.3
2022-10-19T15:47:09.090Z,15.2
2022-10-19T16:01:40.975Z,15
2022-10-19T16:16:19.279Z,14.5
2022-10-19T16:30:54.329Z,14.2
2022-10-19T16:45:23.446Z,13.5
2022-10-19T16:59:55.472Z,13.1
2022-10-19T17:14:28.230Z,12.9
2022-10-19T17:29:01.299Z,12.8
2022-10-19T17:43:34.778Z,12.7
2022-10-19T17:58:09.496Z,12.4
2022-10-19T18:12:41.901Z,12
2022-10-19T18:27:20.579Z,12
2022-10-19T18:41:56.363Z,12.1
2022-10-19T18:56:26.638Z,11.5
2022-10-19T19:11:00.082Z,11.7
2022-10-19T19:25:38.558Z,11.3
2022-10-19T19:40:13.707Z,11.2
2022-10-19T19:54:43.343Z,11.3
2022-10-19T20:09:16.128Z,11.2
2022-10-19T20:23:49.484Z,11
2022-10-19T20:38:23.109Z,11.5
2022-10-19T20:52:56.446Z,11.4
2022-10-19T21:07:27.744Z,11.3
2022-10-19T21:22:01.224Z,11.4
2022-10-19T21:36:35.912Z,11.3
2022-10-19T21:51:10.811Z,11.2
2022-10-19T22:05:42.647Z,11.3
2022-10-19T22:20:15.685Z,11.3
2022-10-19T22:34:47.578Z,11.2
2022-10-19T22:49:20.559Z,11.1
2022-10-19T23:03:54.409Z,11.1
2022-10-19T23:18:33.701Z,11.2
2022-10-19T23:33:08.359Z,11.1
2022-10-19T23:47:38.595Z,11.2
